Time;durP1;ratioP1;P1;durP2;ratioP2;P2;SDS_P1;SDS_P2;PMS_P1;PMS_P2;Temp;Humidity;BMP_temperature;BMP_pressure;BME280_temperature;BME280_humidity;BME280_pressure;Samples;Min_cycle;Max_cycle;Signal;HPM_P1;HPM_P2
2021/08/09 00:00:27;;;;;;;5.25;2.13;;;13.10;99.90;;;;;;4972647;28;20047;-91
2021/08/09 00:03:16;;;;;;;4.55;2.42;;;13.10;99.90;;;;;;4961409;28;20035;-91
2021/08/09 00:06:04;;;;;;;3.53;2.35;;;13.00;99.90;;;;;;4968638;28;20112;-91
2021/08/09 00:08:51;;;;;;;2.88;1.80;;;13.00;99.90;;;;;;4965185;28;20126;-92
2021/08/09 00:11:43;;;;;;;4.65;2.10;;;13.00;99.90;;;;;;4962722;28;20194;-90
2021/08/09 00:14:31;;;;;;;4.63;1.70;;;13.00;99.90;;;;;;4966920;28;20481;-93
2021/08/09 00:17:18;;;;;;;4.70;2.00;;;13.00;99.90;;;;;;4961952;28;20430;-92
2021/08/09 00:20:07;;;;;;;4.45;2.15;;;13.00;99.90;;;;;;4965504;28;20357;-92
2021/08/09 00:22:55;;;;;;;4.38;2.05;;;13.00;99.90;;;;;;4960417;28;20071;-95
2021/08/09 00:25:42;;;;;;;3.97;2.28;;;12.90;99.90;;;;;;4963614;28;20043;-92
2021/08/09 00:28:29;;;;;;;5.78;2.00;;;12.90;99.90;;;;;;4974272;28;20130;-92
2021/08/09 00:31:17;;;;;;;5.63;2.25;;;12.90;99.90;;;;;;4951936;28;20165;-91
2021/08/09 00:34:04;;;;;;;3.95;1.80;;;12.90;99.90;;;;;;4966073;28;20050;-90
2021/08/09 00:36:55;;;;;;;7.97;2.10;;;12.90;99.90;;;;;;4988783;28;20090;-93
2021/08/09 00:39:43;;;;;;;4.88;2.20;;;12.90;99.90;;;;;;4979454;28;20138;-92
2021/08/09 00:42:31;;;;;;;7.78;2.22;;;12.90;99.90;;;;;;4976593;28;20038;-91
2021/08/09 00:45:21;;;;;;;3.42;2.13;;;12.80;99.90;;;;;;4963140;29;20047;-91
2021/08/09 00:48:11;;;;;;;6.82;2.00;;;12.80;99.90;;;;;;4988739;28;20074;-93
2021/08/09 00:51:01;;;;;;;5.28;1.70;;;12.80;99.90;;;;;;4991558;28;20031;-92
2021/08/09 00:53:51;;;;;;;4.57;2.17;;;12.80;99.90;;;;;;4989229;28;20077;-92
2021/08/09 00:56:45;;;;;;;3.17;1.70;;;12.80;99.90;;;;;;4970478;29;20085;-91
2021/08/09 00:59:35;;;;;;;3.55;1.83;;;12.70;99.90;;;;;;4972302;28;20038;-93
2021/08/09 01:02:23;;;;;;;10.15;2.20;;;12.70;99.90;;;;;;4980069;28;20043;-91
2021/08/09 01:05:14;;;;;;;4.90;2.28;;;12.80;99.90;;;;;;4974215;28;20048;-94
2021/08/09 01:08:22;;;;;;;6.68;2.08;;;12.80;99.90;;;;;;4971034;28;20171;-93
2021/08/09 01:11:39;;;;;;;6.57;2.08;;;12.80;99.90;;;;;;4976298;28;20107;-91
2021/08/09 01:14:45;;;;;;;3.60;2.00;;;12.70;99.90;;;;;;4970357;28;20043;-92
2021/08/09 01:17:41;;;;;;;3.25;1.77;;;12.60;99.90;;;;;;4975891;28;20089;-93
2021/08/09 01:20:47;;;;;;;4.78;2.05;;;12.60;99.90;;;;;;4963261;28;20043;-92
2021/08/09 01:24:10;;;;;;;4.00;2.13;;;12.50;99.90;;;;;;4968988;28;20516;-92
2021/08/09 01:27:31;;;;;;;4.88;1.63;;;12.60;99.90;;;;;;4968392;28;20476;-93
2021/08/09 01:30:20;;;;;;;5.07;2.15;;;12.60;99.90;;;;;;4966119;28;20189;-92
2021/08/09 01:33:10;;;;;;;6.10;2.13;;;12.60;99.90;;;;;;4968736;28;20086;-92
2021/08/09 01:35:59;;;;;;;5.15;2.13;;;12.50;99.90;;;;;;4961169;28;20032;-93
2021/08/09 01:38:49;;;;;;;5.13;2.00;;;12.50;99.90;;;;;;4971815;28;20058;-91
2021/08/09 01:41:41;;;;;;;5.53;2.00;;;12.40;99.90;;;;;;4975525;28;20136;-93
2021/08/09 01:44:29;;;;;;;4.05;2.08;;;12.50;99.90;;;;;;4969199;28;20054;-93
2021/08/09 01:47:19;;;;;;;8.65;1.83;;;12.50;99.90;;;;;;4967995;28;20500;-91
2021/08/09 01:50:08;;;;;;;4.13;2.10;;;12.50;99.90;;;;;;4975512;28;20047;-92
2021/08/09 01:52:56;;;;;;;3.53;1.85;;;12.50;99.90;;;;;;4963117;28;20125;-93
2021/08/09 01:55:43;;;;;;;3.00;1.92;;;12.50;99.90;;;;;;4968326;28;20050;-93
2021/08/09 01:58:34;;;;;;;7.75;2.35;;;12.40;99.90;;;;;;4952443;28;20434;-93
2021/08/09 02:01:21;;;;;;;2.72;1.70;;;12.40;99.90;;;;;;4978231;28;20062;-94
2021/08/09 02:04:09;;;;;;;7.13;2.20;;;12.30;99.90;;;;;;4973036;28;20051;-91
2021/08/09 02:06:58;;;;;;;3.80;2.40;;;12.20;99.90;;;;;;4979916;28;20043;-93
2021/08/09 02:09:48;;;;;;;2.42;1.98;;;12.20;99.90;;;;;;4954434;28;20038;-94
2021/08/09 02:13:02;;;;;;;3.50;1.75;;;12.20;99.90;;;;;;4966634;28;20122;-92
2021/08/09 02:16:28;;;;;;;6.18;2.40;;;12.10;99.90;;;;;;4963128;28;20043;-92
2021/08/09 02:19:28;;;;;;;8.23;2.13;;;12.00;99.90;;;;;;4964222;28;20054;-92
2021/08/09 02:22:20;;;;;;;3.97;1.88;;;12.00;99.90;;;;;;4975710;28;20527;-92
2021/08/09 02:25:15;;;;;;;4.25;2.45;;;12.00;99.90;;;;;;4951829;29;20051;-92
2021/08/09 02:28:12;;;;;;;3.45;2.03;;;12.10;99.90;;;;;;4968012;28;20062;-91
2021/08/09 02:31:03;;;;;;;4.07;2.10;;;12.00;99.90;;;;;;4954505;28;20217;-93
2021/08/09 02:33:51;;;;;;;5.13;2.22;;;12.00;99.90;;;;;;4971877;28;20383;-93
2021/08/09 02:36:39;;;;;;;5.10;2.22;;;11.90;99.90;;;;;;4966057;28;20187;-93
2021/08/09 02:39:33;;;;;;;4.20;2.25;;;11.90;99.90;;;;;;4980262;28;20169;-92
2021/08/09 02:42:21;;;;;;;2.80;2.17;;;11.90;99.90;;;;;;4958562;29;20083;-91
2021/08/09 02:45:11;;;;;;;5.38;2.28;;;11.80;99.90;;;;;;4960767;28;20042;-92
2021/08/09 02:48:01;;;;;;;4.72;2.00;;;11.80;99.90;;;;;;4977813;28;20047;-93
2021/08/09 02:50:50;;;;;;;4.70;2.20;;;11.70;99.90;;;;;;4966981;28;20431;-93
2021/08/09 02:53:41;;;;;;;4.72;2.63;;;11.70;99.90;;;;;;4974094;28;20074;-93
2021/08/09 02:56:30;;;;;;;4.78;2.47;;;11.60;99.90;;;;;;4972346;28;20034;-90
2021/08/09 02:59:19;;;;;;;4.72;2.88;;;11.50;99.90;;;;;;4941680;29;20051;-91
2021/08/09 03:02:11;;;;;;;8.10;3.70;;;11.40;99.90;;;;;;4962555;28;20095;-94
2021/08/09 03:05:00;;;;;;;5.45;2.70;;;11.30;99.90;;;;;;4972556;28;20050;-91
2021/08/09 03:07:48;;;;;;;7.63;2.50;;;11.30;99.90;;;;;;4975272;28;20050;-93
2021/08/09 03:10:35;;;;;;;4.57;2.50;;;11.50;99.90;;;;;;4975204;28;20129;-92
2021/08/09 03:13:24;;;;;;;5.35;2.45;;;11.50;99.90;;;;;;4960429;28;20436;-91
2021/08/09 03:16:14;;;;;;;4.95;2.42;;;11.50;99.90;;;;;;4962881;28;20137;-90
2021/08/09 03:19:01;;;;;;;3.97;2.78;;;11.50;99.90;;;;;;4973428;28;20098;-91
2021/08/09 03:21:55;;;;;;;6.93;2.60;;;11.40;99.90;;;;;;4958356;28;20101;-94
2021/08/09 03:24:42;;;;;;;3.22;2.30;;;11.40;99.90;;;;;;4961657;28;20050;-92
2021/08/09 03:27:30;;;;;;;4.80;2.42;;;11.50;99.90;;;;;;4951682;28;20043;-91
2021/08/09 03:30:17;;;;;;;5.97;2.17;;;11.60;99.90;;;;;;4962195;28;20047;-93
2021/08/09 03:33:06;;;;;;;5.07;2.63;;;11.60;99.90;;;;;;4967990;28;20057;-91
2021/08/09 03:35:53;;;;;;;6.93;2.60;;;11.60;99.90;;;;;;4956648;28;20107;-91
2021/08/09 03:38:41;;;;;;;5.00;2.38;;;11.50;99.90;;;;;;4952387;28;20087;-93
2021/08/09 03:41:31;;;;;;;4.50;2.47;;;11.40;99.90;;;;;;4971454;28;20059;-92
2021/08/09 03:44:18;;;;;;;7.40;3.50;;;11.40;99.90;;;;;;4961251;28;20447;-92
2021/08/09 03:47:05;;;;;;;6.25;3.00;;;11.30;99.90;;;;;;4967185;28;20066;-91
2021/08/09 03:49:53;;;;;;;5.38;2.70;;;11.30;99.90;;;;;;4960303;28;20043;-93
2021/08/09 03:52:48;;;;;;;6.00;2.78;;;11.20;99.90;;;;;;4944063;29;20197;-92
2021/08/09 03:55:36;;;;;;;5.80;2.63;;;11.30;99.90;;;;;;4969285;28;20104;-90
2021/08/09 03:58:23;;;;;;;4.45;2.50;;;11.30;99.90;;;;;;4967526;28;20046;-91
2021/08/09 04:01:13;;;;;;;4.07;3.00;;;11.30;99.90;;;;;;4971828;28;20154;-92
2021/08/09 04:04:12;;;;;;;9.45;3.22;;;11.30;99.90;;;;;;4964724;28;20108;-91
2021/08/09 04:07:09;;;;;;;4.75;2.55;;;11.20;99.90;;;;;;4969753;28;20341;-92
2021/08/09 04:09:58;;;;;;;10.38;3.67;;;11.20;99.90;;;;;;4963139;28;20043;-89
2021/08/09 04:12:46;;;;;;;9.98;3.85;;;11.10;99.90;;;;;;4957127;28;20134;-91
2021/08/09 04:15:34;;;;;;;9.45;3.58;;;11.00;99.90;;;;;;4971316;28;20145;-92
2021/08/09 04:18:24;;;;;;;6.53;3.72;;;10.90;99.90;;;;;;4963992;28;20522;-91
2021/08/09 04:21:12;;;;;;;7.70;3.50;;;10.90;99.90;;;;;;4963523;28;20058;-90
2021/08/09 04:23:59;;;;;;;7.13;4.75;;;10.80;99.90;;;;;;4982438;28;20046;-91
2021/08/09 04:26:51;;;;;;;7.70;4.20;;;10.80;99.90;;;;;;4966930;28;20110;-90
2021/08/09 04:29:38;;;;;;;8.20;4.43;;;10.70;99.90;;;;;;4976271;28;20242;-91
2021/08/09 04:32:44;;;;;;;9.82;4.57;;;10.70;99.90;;;;;;4966205;28;20353;-88
2021/08/09 04:48:50;;;;;;;6.20;3.65;;;10.50;99.90;;;;;;4865333;29;20446;-88
2021/08/09 04:51:45;;;;;;;7.60;3.40;;;10.50;99.90;;;;;;4889994;29;20473;-90
2021/08/09 04:54:32;;;;;;;8.73;3.80;;;10.60;99.90;;;;;;4929349;29;20043;-90
2021/08/09 04:57:19;;;;;;;4.75;3.25;;;10.60;99.90;;;;;;4955420;28;20512;-90
2021/08/09 05:00:08;;;;;;;6.57;3.13;;;10.60;99.90;;;;;;4944274;29;20058;-90
2021/08/09 05:02:55;;;;;;;8.00;3.72;;;10.60;99.90;;;;;;4940200;29;20516;-91
2021/08/09 05:05:48;;;;;;;7.75;3.30;;;10.60;99.90;;;;;;4929489;29;20142;-90
2021/08/09 05:08:36;;;;;;;5.85;3.63;;;10.60;99.90;;;;;;4940927;28;20557;-89
2021/08/09 05:11:23;;;;;;;5.43;3.65;;;10.60;99.90;;;;;;4935207;29;20806;-90
2021/08/09 05:14:13;;;;;;;6.32;3.20;;;10.60;99.90;;;;;;4943549;29;20377;-90
2021/08/09 05:17:01;;;;;;;8.60;3.88;;;10.70;99.90;;;;;;4941825;29;20088;-90
2021/08/09 05:19:54;;;;;;;7.05;3.50;;;10.70;99.90;;;;;;4958929;28;20054;-90
2021/08/09 05:22:51;;;;;;;8.85;3.45;;;10.80;99.90;;;;;;4961949;29;20047;-90
2021/08/09 05:25:38;;;;;;;8.65;3.80;;;11.00;99.90;;;;;;4951852;29;20035;-91
2021/08/09 05:28:26;;;;;;;6.15;3.20;;;11.00;99.90;;;;;;4972008;28;20047;-92
2021/08/09 05:31:13;;;;;;;9.75;4.80;;;11.10;99.90;;;;;;4968251;29;20043;-92
2021/08/09 05:34:03;;;;;;;8.32;4.72;;;11.20;99.90;;;;;;4946652;29;20047;-90
2021/08/09 05:37:02;;;;;;;8.85;5.05;;;11.30;99.90;;;;;;4951347;29;20138;-89
2021/08/09 05:39:50;;;;;;;7.75;3.60;;;11.40;99.90;;;;;;4942396;28;20047;-89
2021/08/09 05:42:38;;;;;;;6.13;3.10;;;11.60;99.90;;;;;;4956996;28;20055;-90
2021/08/09 05:45:27;;;;;;;6.28;2.75;;;11.80;99.90;;;;;;4931088;29;20183;-90
2021/08/09 05:48:18;;;;;;;9.18;3.20;;;11.90;99.90;;;;;;4970195;28;20055;-90
2021/08/09 05:51:05;;;;;;;8.05;2.60;;;12.10;99.90;;;;;;4969371;28;20126;-91
2021/08/09 05:53:53;;;;;;;5.50;2.80;;;12.20;99.90;;;;;;4952123;28;20066;-89
2021/08/09 05:56:40;;;;;;;5.43;2.88;;;12.40;99.90;;;;;;4976017;29;20051;-90
2021/08/09 05:59:28;;;;;;;4.40;2.47;;;12.60;99.90;;;;;;4971483;28;20118;-89
2021/08/09 06:02:15;;;;;;;6.35;2.80;;;12.70;99.90;;;;;;4943466;29;20059;-90
2021/08/09 06:05:03;;;;;;;6.60;2.20;;;12.90;99.90;;;;;;4955885;29;20126;-92
2021/08/09 06:07:53;;;;;;;4.50;2.50;;;13.00;99.90;;;;;;4945485;29;20051;-89
2021/08/09 06:10:41;;;;;;;4.60;2.22;;;13.10;99.90;;;;;;4956122;28;20465;-88
2021/08/09 06:13:29;;;;;;;5.43;2.20;;;13.30;99.90;;;;;;4933913;29;20055;-89
2021/08/09 06:16:16;;;;;;;7.78;2.20;;;13.50;99.90;;;;;;4940388;29;20044;-91
2021/08/09 06:19:03;;;;;;;4.15;2.03;;;13.60;99.90;;;;;;4938797;29;20503;-91
2021/08/09 06:21:54;;;;;;;5.20;2.03;;;13.80;99.90;;;;;;4921102;29;20054;-91
2021/08/09 06:24:46;;;;;;;4.30;1.70;;;14.10;99.90;;;;;;4956138;28;20520;-90
2021/08/09 06:27:33;;;;;;;3.63;1.75;;;14.30;99.90;;;;;;4940166;28;20051;-88
2021/08/09 06:30:21;;;;;;;4.93;2.00;;;14.60;99.90;;;;;;4936778;28;20284;-88
2021/08/09 06:33:08;;;;;;;4.05;1.45;;;14.90;99.90;;;;;;4936912;29;20469;-92
2021/08/09 06:36:00;;;;;;;7.95;1.80;;;15.20;99.90;;;;;;4939139;29;20532;-90
2021/08/09 06:38:49;;;;;;;4.32;1.73;;;15.50;99.90;;;;;;4948090;29;20047;-93
2021/08/09 07:03:46;;;;;;;3.17;1.52;;;18.20;99.90;;;;;;4632630;30;20088;-93
2021/08/09 07:07:06;;;;;;;1.80;1.10;;;18.90;99.90;;;;;;4614909;31;20048;-95
2021/08/09 07:10:29;;;;;;;;;;;;;;;;;;;;;
2021/08/09 07:26:12;;;;;;;3.97;1.02;;;20.00;92.80;;;;;;4728986;30;20055;-92
2021/08/09 07:29:03;;;;;;;2.78;1.15;;;20.10;92.80;;;;;;4821171;29;20043;-93
2021/08/09 07:32:14;;;;;;;5.78;1.20;;;19.90;93.00;;;;;;4850361;29;20096;-93
2021/08/09 07:35:17;;;;;;;3.95;1.02;;;20.10;90.20;;;;;;4869988;29;20053;-92
2021/08/09 07:38:07;;;;;;;2.53;0.90;;;19.70;91.10;;;;;;4885744;29;20107;-92
2021/08/09 07:41:44;;;;;;;;;;;;;;;;;;;;;
2021/08/09 07:44:39;;;;;;;2.08;1.00;;;19.60;91.40;;;;;;4893083;29;20060;-92
2021/08/09 07:47:51;;;;;;;;;;;;;;;;;;;;;
2021/08/09 07:50:49;;;;;;;2.47;0.77;;;19.90;91.20;;;;;;4956600;29;20043;-92
2021/08/09 07:53:48;;;;;;;2.15;1.35;;;20.20;88.50;;;;;;4960195;28;20051;-92
2021/08/09 07:57:16;;;;;;;3.65;1.02;;;20.40;86.40;;;;;;4946132;29;20105;-93
2021/08/09 08:00:33;;;;;;;1.10;0.60;;;20.60;84.80;;;;;;4866823;29;20075;-92
2021/08/09 08:03:21;;;;;;;2.90;0.90;;;20.80;83.70;;;;;;4852701;29;20057;-92
2021/08/09 08:06:19;;;;;;;2.20;0.98;;;20.90;84.20;;;;;;4870463;29;20060;-91
2021/08/09 08:09:10;;;;;;;4.32;0.88;;;21.00;83.40;;;;;;4868184;29;20181;-95
2021/08/09 08:12:05;;;;;;;4.18;1.00;;;21.00;80.70;;;;;;4881760;29;20045;-92
2021/08/09 08:14:55;;;;;;;2.63;0.98;;;21.10;80.90;;;;;;4890016;29;20059;-92
2021/08/09 08:18:00;;;;;;;2.00;0.70;;;21.20;75.90;;;;;;4902467;28;20130;-92
2021/08/09 08:20:52;;;;;;;3.42;1.00;;;21.40;76.40;;;;;;4939156;29;20092;-92
2021/08/09 08:23:58;;;;;;;1.80;0.80;;;21.40;74.60;;;;;;4946332;28;20048;-92
2021/08/09 08:27:12;;;;;;;2.15;0.88;;;21.70;75.80;;;;;;4955827;29;20122;-91
2021/08/09 08:30:00;;;;;;;2.40;0.90;;;22.00;72.30;;;;;;4942055;28;20058;-92
2021/08/09 08:33:11;;;;;;;2.67;0.90;;;22.10;73.10;;;;;;4946058;29;20035;-92
2021/08/09 08:36:03;;;;;;;1.17;0.70;;;22.20;69.30;;;;;;4939394;28;20146;-92
2021/08/09 08:38:50;;;;;;;4.20;1.10;;;22.30;68.40;;;;;;4945321;29;20051;-90
2021/08/09 08:41:44;;;;;;;2.90;1.20;;;22.20;68.90;;;;;;4942798;29;20047;-92
2021/08/09 08:44:33;;;;;;;2.17;0.88;;;22.20;68.20;;;;;;4932672;29;20063;-93
2021/08/09 08:47:21;;;;;;;1.73;0.80;;;22.50;66.10;;;;;;4945810;29;20544;-91
2021/08/09 08:50:10;;;;;;;2.85;0.80;;;22.80;67.10;;;;;;4930141;29;20036;-91
2021/08/09 08:52:57;;;;;;;2.80;0.75;;;23.30;62.70;;;;;;4951062;29;20043;-92
2021/08/09 08:56:37;;;;;;;;;;;;;;;;;;;;;
2021/08/09 09:00:02;;;;;;;1.98;0.85;;;23.50;64.50;;;;;;4955310;28;20035;-92
2021/08/09 09:03:01;;;;;;;1.95;0.70;;;23.80;61.00;;;;;;4962490;28;20118;-92
2021/08/09 09:06:07;;;;;;;2.10;0.73;;;24.60;61.20;;;;;;4967546;28;20058;-91
2021/08/09 09:09:04;;;;;;;1.58;0.57;;;25.10;58.80;;;;;;5025725;23;20057;-92
2021/08/09 09:12:13;;;;;;;5.38;0.90;;;25.60;58.50;;;;;;5016742;28;20053;-92
2021/08/09 09:16:00;;;;;;;1.70;0.80;;;25.90;56.90;;;;;;5040810;28;20057;-92
2021/08/09 09:18:59;;;;;;;3.60;0.80;;;25.20;57.00;;;;;;4979394;28;20034;-92
2021/08/09 09:22:17;;;;;;;2.67;0.60;;;25.40;56.00;;;;;;5032873;28;20072;-93
2021/08/09 09:25:37;;;;;;;4.30;0.95;;;25.30;56.30;;;;;;5012726;28;20049;-92
2021/08/09 09:29:00;;;;;;;2.40;0.65;;;26.30;55.70;;;;;;5035648;28;20060;-92
2021/08/09 09:32:15;;;;;;;4.07;1.17;;;26.50;53.30;;;;;;4943677;29;20047;-91
2021/08/09 09:39:44;;;;;;;3.20;0.90;;;25.60;54.70;;;;;;4912230;28;20051;-91
2021/08/09 09:46:31;;;;;;;7.63;1.25;;;26.50;55.90;;;;;;4995700;28;20055;-92
2021/08/09 09:49:36;;;;;;;1.70;0.77;;;26.10;54.30;;;;;;4985825;28;20053;-90
2021/08/09 09:52:45;;;;;;;5.22;1.30;;;24.90;56.90;;;;;;4974760;28;20471;-90
2021/08/09 09:55:48;;;;;;;3.72;1.00;;;24.70;58.40;;;;;;5028203;28;20042;-90
2021/08/09 09:58:39;;;;;;;2.80;0.82;;;25.10;58.90;;;;;;5009280;28;20045;-92
2021/08/09 10:01:27;;;;;;;2.28;0.82;;;25.20;56.10;;;;;;5033000;28;20042;-89
2021/08/09 10:04:14;;;;;;;3.15;0.90;;;25.20;56.90;;;;;;5023001;28;20045;-91
2021/08/09 10:07:02;;;;;;;1.15;0.68;;;25.10;56.50;;;;;;5019492;28;20049;-92
2021/08/09 10:09:54;;;;;;;3.25;1.13;;;24.90;57.00;;;;;;5026713;28;20089;-91
2021/08/09 10:12:46;;;;;;;2.03;0.70;;;25.10;56.50;;;;;;5009320;28;20072;-92
2021/08/09 10:15:34;;;;;;;;;;;25.00;57.00;;;;;;5020324;28;20478;-93
2021/08/09 10:18:33;;;;;;;2.55;0.90;;;25.90;55.50;;;;;;5037795;28;19921;-94
2021/08/09 10:21:33;;;;;;;3.05;1.00;;;26.00;56.00;;;;;;5016817;28;20053;-94
2021/08/09 10:24:41;;;;;;;6.07;1.17;;;25.10;57.00;;;;;;5039561;28;20445;-91
2021/08/09 10:27:52;;;;;;;3.10;1.00;;;24.60;58.50;;;;;;5024135;28;20066;-91
2021/08/09 10:30:45;;;;;;;4.43;0.95;;;25.50;59.70;;;;;;5037043;28;20044;-92
2021/08/09 11:15:12;;;;;;;1.75;0.75;;;30.10;42.40;;;;;;6270120;23;20048;-89
2021/08/09 11:18:23;;;;;;;3.17;0.68;;;29.50;42.50;;;;;;6119468;23;20034;-94
2021/08/09 11:21:55;;;;;;;;;;;;;;;;;;;;;
2021/08/09 11:25:50;;;;;;;;;;;;;;;;;;;;;
2021/08/09 11:33:34;;;;;;;1.98;0.80;;;27.80;46.00;;;;;;5999661;23;20047;-92
2021/08/09 11:37:00;;;;;;;1.88;0.98;;;28.00;44.30;;;;;;6014319;23;20478;-89
2021/08/09 11:40:14;;;;;;;1.42;1.00;;;28.10;44.40;;;;;;6017404;23;20042;-90
2021/08/09 11:43:02;;;;;;;2.80;0.80;;;27.30;44.60;;;;;;6107959;23;20029;-89
2021/08/09 11:45:53;;;;;;;2.03;1.05;;;26.30;47.70;;;;;;6128957;23;20030;-88
2021/08/09 11:48:43;;;;;;;1.75;0.80;;;26.20;48.30;;;;;;6127811;23;20500;-88
2021/08/09 11:51:31;;;;;;;1.63;0.85;;;26.40;47.40;;;;;;6130273;23;20076;-90
2021/08/09 11:54:18;;;;;;;5.15;1.35;;;26.50;47.50;;;;;;6133256;23;20037;-89
2021/08/09 11:57:07;;;;;;;3.05;1.08;;;26.20;47.10;;;;;;6127934;23;20030;-89
2021/08/09 11:59:56;;;;;;;8.07;1.73;;;26.60;47.50;;;;;;6186751;23;20059;-88
2021/08/09 12:03:16;;;;;;;3.28;1.20;;;27.40;45.00;;;;;;6228239;23;20031;-88
2021/08/09 12:06:25;;;;;;;3.55;1.15;;;27.40;46.60;;;;;;6229229;23;20028;-89
2021/08/09 12:09:18;;;;;;;3.10;0.97;;;28.50;45.70;;;;;;6230737;23;20111;-91
2021/08/09 12:12:08;;;;;;;1.73;0.90;;;29.60;42.40;;;;;;6248721;23;20021;-91
2021/08/09 12:15:02;;;;;;;1.92;0.98;;;29.80;41.20;;;;;;6247993;23;20021;-90
2021/08/09 12:18:11;;;;;;;2.67;0.90;;;30.70;39.00;;;;;;6223082;23;20131;-89
2021/08/09 12:21:10;;;;;;;3.42;0.90;;;29.60;40.10;;;;;;6245045;23;20031;-91
2021/08/09 12:24:02;;;;;;;3.75;1.50;;;29.50;40.60;;;;;;6224051;23;20039;-89
2021/08/09 12:26:52;;;;;;;2.13;1.13;;;27.30;42.50;;;;;;6224694;23;20375;-90
2021/08/09 12:29:41;;;;;;;1.30;0.90;;;25.90;45.50;;;;;;6245320;23;20051;-90
2021/08/09 12:32:32;;;;;;;1.35;0.90;;;25.70;47.40;;;;;;6244878;23;20446;-92
2021/08/09 12:35:42;;;;;;;2.40;0.98;;;26.90;46.10;;;;;;6245607;23;20561;-91
2021/08/09 12:38:40;;;;;;;4.25;0.98;;;28.40;43.30;;;;;;6246360;23;20024;-87
2021/08/09 12:41:32;;;;;;;3.88;1.08;;;28.30;43.80;;;;;;6242008;23;20119;-89
2021/08/09 12:44:19;;;;;;;6.72;1.15;;;27.40;45.20;;;;;;6247337;22;20509;-88
2021/08/09 12:47:09;;;;;;;2.97;1.00;;;27.40;42.80;;;;;;6245307;23;20688;-87
2021/08/09 12:49:56;;;;;;;2.83;1.02;;;26.20;46.10;;;;;;6242757;23;20055;-89
2021/08/09 12:52:44;;;;;;;2.55;1.00;;;25.70;47.90;;;;;;6242863;23;20020;-87
2021/08/09 12:55:34;;;;;;;4.15;1.20;;;25.00;48.60;;;;;;6222746;23;20080;-86
2021/08/09 12:58:43;;;;;;;2.38;0.90;;;24.80;49.10;;;;;;6248489;23;20417;-92
2021/08/09 13:01:31;;;;;;;2.95;0.93;;;24.90;49.50;;;;;;6224206;23;20024;-92
2021/08/09 13:04:48;;;;;;;;;;;;;;;;;;;;;
2021/08/09 13:11:42;;;;;;;2.10;1.10;;;25.10;50.10;;;;;;6052364;23;20480;-93
2021/08/09 13:14:56;;;;;;;2.92;1.58;;;25.20;51.30;;;;;;5988147;23;20036;-91
2021/08/09 13:17:46;;;;;;;3.05;1.23;;;25.30;49.10;;;;;;6036172;23;20066;-90
2021/08/09 13:20:54;;;;;;;3.47;1.23;;;25.50;49.50;;;;;;6036924;23;20019;-92
2021/08/09 13:23:41;;;;;;;2.13;1.02;;;27.00;48.20;;;;;;6039590;23;20023;-92
2021/08/09 13:26:31;;;;;;;1.30;0.80;;;28.40;43.50;;;;;;6020846;23;20027;-94
2021/08/09 13:29:19;;;;;;;2.53;0.93;;;30.20;42.90;;;;;;6038878;23;20023;-93
2021/08/09 13:32:14;;;;;;;2.97;1.42;;;32.00;40.60;;;;;;6038241;23;20027;-93
2021/08/09 13:35:01;;;;;;;;;;;32.80;37.40;;;;;;6021419;23;20380;-93
2021/08/09 13:37:57;;;;;;;4.63;0.77;;;32.50;37.40;;;;;;6065637;23;20197;-92
2021/08/09 13:41:20;;;;;;;;;;;;;;;;;;;;;
2021/08/09 13:44:36;;;;;;;2.17;0.90;;;31.80;38.10;;;;;;6133462;23;20133;-92
2021/08/09 13:51:27;;;;;;;;;;;;;;;;;;;;;
2021/08/09 13:54:44;;;;;;;3.30;1.10;;;27.90;43.50;;;;;;6077314;23;20036;-93
2021/08/09 13:57:45;;;;;;;2.67;1.08;;;29.40;40.90;;;;;;6134800;23;20026;-94
2021/08/09 14:03:59;;;;;;;3.22;1.45;;;32.20;37.30;;;;;;6134185;23;20692;-93
2021/08/09 14:07:39;;;;;;;3.38;1.23;;;31.20;37.30;;;;;;6055726;23;20046;-92
2021/08/09 14:14:13;;;;;;;4.30;1.17;;;31.40;36.50;;;;;;5928758;24;20025;-92
2021/08/09 14:17:04;;;;;;;1.90;1.00;;;29.10;40.00;;;;;;5926157;24;20142;-93
2021/08/09 14:19:52;;;;;;;1.50;0.95;;;28.20;42.00;;;;;;5924878;24;20112;-89
2021/08/09 14:22:48;;;;;;;2.45;1.08;;;28.20;41.40;;;;;;5926677;24;20128;-91
2021/08/09 14:25:36;;;;;;;3.42;0.90;;;27.30;43.10;;;;;;5932887;24;20058;-89
2021/08/09 14:28:23;;;;;;;1.67;0.90;;;26.20;44.60;;;;;;5924507;24;20315;-88
2021/08/09 14:31:14;;;;;;;3.20;1.20;;;25.60;46.20;;;;;;5927435;24;20058;-89
2021/08/09 14:34:04;;;;;;;3.90;1.08;;;25.50;44.30;;;;;;5937378;24;20049;-89
2021/08/09 14:36:53;;;;;;;2.80;1.10;;;25.70;45.10;;;;;;5952401;24;20028;-91
2021/08/09 14:39:41;;;;;;;3.15;1.20;;;26.30;45.40;;;;;;5997380;23;20093;-89
2021/08/09 14:42:33;;;;;;;3.80;1.52;;;27.00;43.40;;;;;;6145744;23;20017;-90
2021/08/09 14:45:21;;;;;;;2.55;1.00;;;27.00;43.40;;;;;;6146857;23;20013;-92
2021/08/09 14:48:29;;;;;;;3.05;1.20;;;27.70;43.20;;;;;;6128470;23;20033;-93
2021/08/09 14:51:22;;;;;;;2.13;1.13;;;28.30;42.10;;;;;;6147868;23;20108;-93
2021/08/09 14:54:09;;;;;;;2.17;1.25;;;28.70;41.50;;;;;;6143331;23;20041;-92
2021/08/09 14:56:59;;;;;;;1.20;0.82;;;28.50;39.80;;;;;;6143738;23;20026;-94
2021/08/09 14:59:52;;;;;;;6.50;1.58;;;28.20;39.80;;;;;;6111504;23;20030;-91
2021/08/09 15:02:39;;;;;;;2.70;1.42;;;27.50;38.30;;;;;;6130844;23;20033;-90
2021/08/09 15:05:36;;;;;;;2.65;1.10;;;27.20;38.30;;;;;;6090755;23;20025;-94
2021/08/09 15:08:28;;;;;;;2.55;1.10;;;26.90;39.10;;;;;;6126249;23;20037;-92
2021/08/09 15:11:22;;;;;;;2.58;1.10;;;27.30;40.20;;;;;;6089462;23;20125;-92
2021/08/09 15:14:09;;;;;;;4.25;1.30;;;26.80;40.70;;;;;;6105353;23;20022;-92
2021/08/09 15:17:05;;;;;;;3.00;1.20;;;26.80;42.50;;;;;;6124307;23;20033;-89
2021/08/09 15:19:52;;;;;;;4.45;1.17;;;26.20;43.50;;;;;;6123506;23;20434;-90
2021/08/09 15:22:42;;;;;;;3.22;1.20;;;26.20;44.70;;;;;;6122116;23;20057;-93
2021/08/09 15:25:37;;;;;;;3.67;1.20;;;26.70;43.80;;;;;;6105101;23;20033;-92
2021/08/09 15:28:24;;;;;;;3.40;1.00;;;27.50;42.10;;;;;;6121470;23;20139;-92
2021/08/09 15:31:17;;;;;;;2.58;1.25;;;27.50;40.30;;;;;;6123884;23;20026;-93
2021/08/09 15:34:07;;;;;;;3.03;1.30;;;27.30;39.80;;;;;;6104528;23;20080;-91
2021/08/09 15:37:04;;;;;;;2.95;1.13;;;27.10;38.90;;;;;;6126887;23;20026;-92
2021/08/09 15:39:54;;;;;;;3.00;1.35;;;27.20;37.90;;;;;;6105272;23;20026;-93
2021/08/09 15:43:05;;;;;;;2.17;1.02;;;26.50;38.40;;;;;;6117413;23;20029;-93
2021/08/09 15:46:16;;;;;;;2.13;1.02;;;26.50;38.90;;;;;;6130718;23;20026;-92
2021/08/09 15:49:09;;;;;;;3.13;1.10;;;26.20;38.80;;;;;;6112347;23;20030;-92
2021/08/09 15:52:05;;;;;;;2.15;1.35;;;26.30;37.00;;;;;;6106485;23;20266;-93
2021/08/09 15:54:55;;;;;;;2.13;1.10;;;26.40;38.20;;;;;;6105991;23;20034;-92
2021/08/09 15:57:42;;;;;;;2.50;1.40;;;26.30;37.90;;;;;;6125302;23;20022;-91
2021/08/09 16:00:36;;;;;;;4.32;1.60;;;26.20;37.80;;;;;;6120525;23;20032;-94
2021/08/09 16:03:25;;;;;;;4.25;1.17;;;26.40;38.60;;;;;;6195479;23;20020;-90
2021/08/09 16:06:16;;;;;;;2.80;1.25;;;26.90;37.20;;;;;;6177805;23;20031;-91
2021/08/09 16:09:03;;;;;;;3.88;1.40;;;26.40;37.80;;;;;;6198540;23;20043;-91
2021/08/09 16:12:01;;;;;;;2.28;0.90;;;26.60;38.20;;;;;;6197950;23;20025;-92
2021/08/09 16:14:51;;;;;;;2.47;1.15;;;26.40;38.10;;;;;;6247554;23;20047;-92
2021/08/09 16:17:44;;;;;;;2.30;1.00;;;26.40;39.20;;;;;;6205677;23;20028;-92
2021/08/09 16:20:49;;;;;;;3.17;1.20;;;26.00;40.20;;;;;;6231479;23;20028;-91
2021/08/09 16:23:41;;;;;;;4.57;1.05;;;25.30;40.60;;;;;;6230847;23;20024;-91
2021/08/09 16:26:31;;;;;;;3.55;1.50;;;24.50;41.10;;;;;;6227799;23;20024;-90
2021/08/09 16:29:26;;;;;;;3.83;1.20;;;24.00;43.70;;;;;;6229653;23;20162;-91
2021/08/09 16:32:13;;;;;;;3.35;1.25;;;23.70;44.70;;;;;;6228821;23;20024;-91
2021/08/09 16:35:04;;;;;;;3.35;1.27;;;23.20;44.70;;;;;;6230213;23;20032;-95
2021/08/09 16:37:54;;;;;;;5.03;1.48;;;22.50;46.20;;;;;;6250876;23;20039;-92
2021/08/09 16:40:44;;;;;;;3.67;1.25;;;22.30;48.20;;;;;;6229365;23;20094;-94
2021/08/09 16:43:34;;;;;;;3.60;1.52;;;22.20;48.60;;;;;;6229136;23;20408;-93
2021/08/09 16:46:24;;;;;;;2.75;1.33;;;22.10;49.20;;;;;;6248030;23;20154;-92
2021/08/09 16:49:12;;;;;;;2.33;1.20;;;22.10;49.40;;;;;;6207798;23;20082;-91
2021/08/09 16:51:59;;;;;;;4.03;1.45;;;22.30;49.90;;;;;;6226589;23;20386;-94
2021/08/09 16:54:48;;;;;;;7.28;1.77;;;22.30;50.90;;;;;;6248104;23;20024;-93
2021/08/09 16:57:36;;;;;;;1.83;1.00;;;22.20;50.20;;;;;;6247002;23;20035;-92
2021/08/09 17:00:26;;;;;;;5.32;1.23;;;22.00;50.60;;;;;;6225588;23;20035;-93
2021/08/09 17:03:17;;;;;;;3.33;1.20;;;21.90;50.70;;;;;;6228394;23;20020;-94
2021/08/09 17:06:57;;;;;;;3.35;1.27;;;21.70;51.80;;;;;;6254319;23;20319;-94
2021/08/09 17:09:44;;;;;;;2.97;1.55;;;21.60;53.20;;;;;;6249394;23;20034;-91
2021/08/09 17:16:33;;;;;;;4.22;1.63;;;21.50;54.00;;;;;;6211829;23;20456;-94
2021/08/09 17:19:43;;;;;;;5.10;1.67;;;21.40;54.00;;;;;;6248062;23;20043;-93
2021/08/09 17:22:34;;;;;;;5.90;1.42;;;21.20;54.20;;;;;;6229165;23;20050;-93
2021/08/09 17:25:24;;;;;;;3.97;1.60;;;21.20;54.30;;;;;;6229576;23;20039;-92